sensor_id;sensor_type;location;lat;lon;timestamp;P1;durP1;ratioP1;P2;durP2;ratioP2
68126;SDS011;54931;52.098;21.006;2023-04-01T00:01:14;21.90;;;10.70;;
68126;SDS011;54931;52.098;21.006;2023-04-01T00:03:43;24.50;;;12.20;;
68126;SDS011;54931;52.098;21.006;2023-04-01T00:06:17;22.50;;;11.70;;
68126;SDS011;54931;52.098;21.006;2023-04-01T00:08:46;24.20;;;10.60;;
68126;SDS011;54931;52.098;21.006;2023-04-01T00:11:14;21.30;;;11.10;;
68126;SDS011;54931;52.098;21.006;2023-04-01T00:13:43;18.00;;;10.90;;
68126;SDS011;54931;52.098;21.006;2023-04-01T00:16:15;22.50;;;10.60;;
68126;SDS011;54931;52.098;21.006;2023-04-01T00:18:43;24.40;;;11.20;;
68126;SDS011;54931;52.098;21.006;2023-04-01T00:21:10;20.10;;;10.90;;
68126;SDS011;54931;52.098;21.006;2023-04-01T00:23:37;22.60;;;10.50;;
68126;SDS011;54931;52.098;21.006;2023-04-01T00:26:05;22.20;;;10.90;;
68126;SDS011;54931;52.098;21.006;2023-04-01T00:28:34;20.10;;;10.80;;
68126;SDS011;54931;52.098;21.006;2023-04-01T00:31:09;20.60;;;10.80;;
68126;SDS011;54931;52.098;21.006;2023-04-01T00:33:38;22.10;;;10.40;;
68126;SDS011;54931;52.098;21.006;2023-04-01T00:36:11;21.90;;;10.50;;
68126;SDS011;54931;52.098;21.006;2023-04-01T00:38:41;22.30;;;11.70;;
68126;SDS011;54931;52.098;21.006;2023-04-01T00:41:11;23.20;;;11.00;;
68126;SDS011;54931;52.098;21.006;2023-04-01T00:43:44;25.20;;;11.10;;
68126;SDS011;54931;52.098;21.006;2023-04-01T00:46:14;21.80;;;11.00;;
68126;SDS011;54931;52.098;21.006;2023-04-01T00:48:46;22.40;;;12.00;;
68126;SDS011;54931;52.098;21.006;2023-04-01T00:51:27;22.40;;;10.60;;
68126;SDS011;54931;52.098;21.006;2023-04-01T00:53:59;24.60;;;11.40;;
68126;SDS011;54931;52.098;21.006;2023-04-01T00:56:37;24.70;;;11.80;;
68126;SDS011;54931;52.098;21.006;2023-04-01T00:59:16;20.50;;;10.10;;
68126;SDS011;54931;52.098;21.006;2023-04-01T01:01:47;24.10;;;10.40;;
68126;SDS011;54931;52.098;21.006;2023-04-01T01:04:27;22.90;;;10.60;;
68126;SDS011;54931;52.098;21.006;2023-04-01T01:10:26;22.60;;;11.70;;
68126;SDS011;54931;52.098;21.006;2023-04-01T01:13:18;22.30;;;11.40;;
68126;SDS011;54931;52.098;21.006;2023-04-01T01:15:56;21.60;;;10.80;;
68126;SDS011;54931;52.098;21.006;2023-04-01T01:18:39;25.50;;;12.00;;
68126;SDS011;54931;52.098;21.006;2023-04-01T01:27:17;23.60;;;11.90;;
68126;SDS011;54931;52.098;21.006;2023-04-01T01:29:58;22.40;;;10.90;;
68126;SDS011;54931;52.098;21.006;2023-04-01T01:35:34;24.20;;;13.30;;
68126;SDS011;54931;52.098;21.006;2023-04-01T01:38:11;27.40;;;13.70;;
68126;SDS011;54931;52.098;21.006;2023-04-01T01:40:45;27.00;;;13.60;;
68126;SDS011;54931;52.098;21.006;2023-04-01T01:43:19;26.80;;;13.20;;
68126;SDS011;54931;52.098;21.006;2023-04-01T01:45:54;23.60;;;12.10;;
68126;SDS011;54931;52.098;21.006;2023-04-01T01:48:26;30.00;;;13.30;;
68126;SDS011;54931;52.098;21.006;2023-04-01T01:50:56;25.20;;;13.20;;
68126;SDS011;54931;52.098;21.006;2023-04-01T01:53:24;31.20;;;13.90;;
68126;SDS011;54931;52.098;21.006;2023-04-01T01:55:52;33.40;;;14.80;;
68126;SDS011;54931;52.098;21.006;2023-04-01T01:58:36;26.90;;;14.10;;
68126;SDS011;54931;52.098;21.006;2023-04-01T02:01:14;25.10;;;13.30;;
68126;SDS011;54931;52.098;21.006;2023-04-01T02:03:46;30.80;;;14.50;;
68126;SDS011;54931;52.098;21.006;2023-04-01T02:06:18;18.90;;;10.20;;
68126;SDS011;54931;52.098;21.006;2023-04-01T02:08:52;24.60;;;12.80;;
68126;SDS011;54931;52.098;21.006;2023-04-01T02:11:28;27.80;;;11.40;;
68126;SDS011;54931;52.098;21.006;2023-04-01T02:14:04;21.90;;;12.50;;
68126;SDS011;54931;52.098;21.006;2023-04-01T02:16:54;25.80;;;13.80;;
68126;SDS011;54931;52.098;21.006;2023-04-01T02:19:36;27.00;;;13.20;;
68126;SDS011;54931;52.098;21.006;2023-04-01T02:22:11;24.90;;;13.10;;
68126;SDS011;54931;52.098;21.006;2023-04-01T02:24:42;27.90;;;13.50;;
68126;SDS011;54931;52.098;21.006;2023-04-01T02:27:10;27.40;;;12.70;;
68126;SDS011;54931;52.098;21.006;2023-04-01T02:29:39;22.90;;;11.70;;
68126;SDS011;54931;52.098;21.006;2023-04-01T02:32:08;26.60;;;13.10;;
68126;SDS011;54931;52.098;21.006;2023-04-01T02:34:37;26.30;;;13.00;;
68126;SDS011;54931;52.098;21.006;2023-04-01T02:37:07;27.50;;;12.30;;
68126;SDS011;54931;52.098;21.006;2023-04-01T02:39:34;25.80;;;12.90;;
68126;SDS011;54931;52.098;21.006;2023-04-01T02:42:02;25.50;;;12.40;;
68126;SDS011;54931;52.098;21.006;2023-04-01T02:44:30;27.30;;;12.30;;
68126;SDS011;54931;52.098;21.006;2023-04-01T02:46:58;25.40;;;12.30;;
68126;SDS011;54931;52.098;21.006;2023-04-01T02:49:26;22.30;;;11.30;;
68126;SDS011;54931;52.098;21.006;2023-04-01T02:51:53;23.40;;;12.60;;
68126;SDS011;54931;52.098;21.006;2023-04-01T02:54:21;24.70;;;11.90;;
68126;SDS011;54931;52.098;21.006;2023-04-01T02:56:48;22.50;;;11.60;;
68126;SDS011;54931;52.098;21.006;2023-04-01T02:59:16;22.40;;;11.10;;
68126;SDS011;54931;52.098;21.006;2023-04-01T03:01:44;22.70;;;12.30;;
68126;SDS011;54931;52.098;21.006;2023-04-01T03:04:12;20.60;;;11.40;;
68126;SDS011;54931;52.098;21.006;2023-04-01T03:06:39;25.30;;;12.70;;
68126;SDS011;54931;52.098;21.006;2023-04-01T03:09:07;22.40;;;11.00;;
68126;SDS011;54931;52.098;21.006;2023-04-01T03:11:35;20.80;;;10.60;;
68126;SDS011;54931;52.098;21.006;2023-04-01T03:14:03;23.00;;;12.10;;
68126;SDS011;54931;52.098;21.006;2023-04-01T03:16:30;29.30;;;13.00;;
68126;SDS011;54931;52.098;21.006;2023-04-01T03:18:58;24.80;;;12.80;;
68126;SDS011;54931;52.098;21.006;2023-04-01T03:21:28;27.60;;;12.10;;
68126;SDS011;54931;52.098;21.006;2023-04-01T03:23:56;24.20;;;12.60;;
68126;SDS011;54931;52.098;21.006;2023-04-01T03:26:24;26.10;;;12.80;;
68126;SDS011;54931;52.098;21.006;2023-04-01T03:28:53;22.30;;;11.60;;
68126;SDS011;54931;52.098;21.006;2023-04-01T03:31:23;26.10;;;13.00;;
68126;SDS011;54931;52.098;21.006;2023-04-01T03:33:51;25.60;;;13.20;;
68126;SDS011;54931;52.098;21.006;2023-04-01T03:36:19;23.20;;;11.90;;
68126;SDS011;54931;52.098;21.006;2023-04-01T03:38:47;23.60;;;12.30;;
68126;SDS011;54931;52.098;21.006;2023-04-01T03:41:16;30.30;;;13.80;;
68126;SDS011;54931;52.098;21.006;2023-04-01T03:43:45;25.50;;;13.20;;
68126;SDS011;54931;52.098;21.006;2023-04-01T03:46:19;26.50;;;12.70;;
68126;SDS011;54931;52.098;21.006;2023-04-01T03:48:47;31.30;;;14.30;;
68126;SDS011;54931;52.098;21.006;2023-04-01T03:51:15;25.50;;;12.30;;
68126;SDS011;54931;52.098;21.006;2023-04-01T03:53:42;35.90;;;14.90;;
68126;SDS011;54931;52.098;21.006;2023-04-01T03:56:10;26.80;;;14.10;;
68126;SDS011;54931;52.098;21.006;2023-04-01T03:58:38;29.80;;;13.60;;
68126;SDS011;54931;52.098;21.006;2023-04-01T04:01:14;24.50;;;12.20;;
68126;SDS011;54931;52.098;21.006;2023-04-01T04:03:43;25.50;;;13.20;;
68126;SDS011;54931;52.098;21.006;2023-04-01T04:06:15;24.90;;;13.30;;
68126;SDS011;54931;52.098;21.006;2023-04-01T04:08:45;31.70;;;15.50;;
68126;SDS011;54931;52.098;21.006;2023-04-01T04:11:14;26.50;;;13.50;;
68126;SDS011;54931;52.098;21.006;2023-04-01T04:13:42;30.40;;;14.70;;
68126;SDS011;54931;52.098;21.006;2023-04-01T04:16:11;29.00;;;14.50;;
68126;SDS011;54931;52.098;21.006;2023-04-01T04:18:38;30.90;;;14.60;;
68126;SDS011;54931;52.098;21.006;2023-04-01T04:21:06;29.30;;;14.40;;
68126;SDS011;54931;52.098;21.006;2023-04-01T04:23:34;28.10;;;13.80;;
68126;SDS011;54931;52.098;21.006;2023-04-01T04:26:06;29.80;;;13.90;;
68126;SDS011;54931;52.098;21.006;2023-04-01T04:28:36;35.60;;;16.40;;
68126;SDS011;54931;52.098;21.006;2023-04-01T04:31:05;33.10;;;16.30;;
68126;SDS011;54931;52.098;21.006;2023-04-01T04:33:34;33.80;;;16.40;;
68126;SDS011;54931;52.098;21.006;2023-04-01T04:36:03;36.60;;;17.60;;
68126;SDS011;54931;52.098;21.006;2023-04-01T04:38:31;31.40;;;14.70;;
68126;SDS011;54931;52.098;21.006;2023-04-01T04:40:58;32.70;;;14.70;;
68126;SDS011;54931;52.098;21.006;2023-04-01T04:43:26;32.80;;;16.00;;
68126;SDS011;54931;52.098;21.006;2023-04-01T04:45:54;32.00;;;15.20;;
68126;SDS011;54931;52.098;21.006;2023-04-01T04:48:22;37.00;;;16.40;;
68126;SDS011;54931;52.098;21.006;2023-04-01T04:50:50;32.90;;;15.90;;
68126;SDS011;54931;52.098;21.006;2023-04-01T04:53:18;28.90;;;14.50;;
68126;SDS011;54931;52.098;21.006;2023-04-01T04:55:47;32.80;;;15.30;;
68126;SDS011;54931;52.098;21.006;2023-04-01T04:58:18;30.70;;;15.10;;
68126;SDS011;54931;52.098;21.006;2023-04-01T05:00:46;29.40;;;14.80;;
68126;SDS011;54931;52.098;21.006;2023-04-01T05:03:14;33.10;;;16.30;;
68126;SDS011;54931;52.098;21.006;2023-04-01T05:05:49;27.30;;;13.50;;
68126;SDS011;54931;52.098;21.006;2023-04-01T05:08:18;32.30;;;14.80;;
68126;SDS011;54931;52.098;21.006;2023-04-01T05:10:46;33.70;;;16.20;;
68126;SDS011;54931;52.098;21.006;2023-04-01T05:13:13;32.30;;;16.60;;
68126;SDS011;54931;52.098;21.006;2023-04-01T05:15:41;28.90;;;13.40;;
68126;SDS011;54931;52.098;21.006;2023-04-01T05:18:09;34.20;;;14.80;;
68126;SDS011;54931;52.098;21.006;2023-04-01T05:20:37;31.00;;;14.40;;
68126;SDS011;54931;52.098;21.006;2023-04-01T05:23:05;28.20;;;13.80;;
68126;SDS011;54931;52.098;21.006;2023-04-01T05:25:33;32.60;;;15.40;;
68126;SDS011;54931;52.098;21.006;2023-04-01T05:28:00;29.50;;;14.40;;
68126;SDS011;54931;52.098;21.006;2023-04-01T05:30:28;26.50;;;14.00;;
68126;SDS011;54931;52.098;21.006;2023-04-01T05:32:55;25.40;;;12.70;;
68126;SDS011;54931;52.098;21.006;2023-04-01T05:35:23;23.40;;;12.90;;
68126;SDS011;54931;52.098;21.006;2023-04-01T05:37:51;30.30;;;14.00;;
68126;SDS011;54931;52.098;21.006;2023-04-01T05:40:18;27.00;;;14.40;;
68126;SDS011;54931;52.098;21.006;2023-04-01T05:42:46;25.70;;;13.90;;
68126;SDS011;54931;52.098;21.006;2023-04-01T05:45:14;29.10;;;14.60;;
68126;SDS011;54931;52.098;21.006;2023-04-01T05:47:42;27.00;;;12.50;;
68126;SDS011;54931;52.098;21.006;2023-04-01T05:50:10;26.90;;;13.70;;
68126;SDS011;54931;52.098;21.006;2023-04-01T05:52:38;29.80;;;15.00;;
68126;SDS011;54931;52.098;21.006;2023-04-01T05:55:06;39.90;;;18.20;;
68126;SDS011;54931;52.098;21.006;2023-04-01T05:57:34;28.80;;;14.60;;
68126;SDS011;54931;52.098;21.006;2023-04-01T06:00:04;28.90;;;14.50;;
68126;SDS011;54931;52.098;21.006;2023-04-01T06:02:33;34.50;;;17.20;;
68126;SDS011;54931;52.098;21.006;2023-04-01T06:05:17;33.50;;;16.40;;
68126;SDS011;54931;52.098;21.006;2023-04-01T06:07:47;25.70;;;13.30;;
68126;SDS011;54931;52.098;21.006;2023-04-01T06:10:18;26.40;;;13.60;;
68126;SDS011;54931;52.098;21.006;2023-04-01T06:13:06;29.90;;;16.40;;
68126;SDS011;54931;52.098;21.006;2023-04-01T06:16:50;29.00;;;15.00;;
68126;SDS011;54931;52.098;21.006;2023-04-01T06:19:25;28.30;;;15.00;;
68126;SDS011;54931;52.098;21.006;2023-04-01T06:28:49;28.70;;;15.60;;
68126;SDS011;54931;52.098;21.006;2023-04-01T06:50:11;29.30;;;16.60;;
68126;SDS011;54931;52.098;21.006;2023-04-01T06:56:14;28.50;;;16.20;;
68126;SDS011;54931;52.098;21.006;2023-04-01T07:01:37;29.20;;;16.20;;
68126;SDS011;54931;52.098;21.006;2023-04-01T07:04:22;29.50;;;16.10;;
68126;SDS011;54931;52.098;21.006;2023-04-01T07:06:57;29.70;;;15.80;;
68126;SDS011;54931;52.098;21.006;2023-04-01T07:09:38;30.60;;;16.40;;
68126;SDS011;54931;52.098;21.006;2023-04-01T07:12:20;30.40;;;17.20;;
68126;SDS011;54931;52.098;21.006;2023-04-01T07:14:56;30.30;;;17.20;;
68126;SDS011;54931;52.098;21.006;2023-04-01T07:17:30;28.40;;;16.50;;
68126;SDS011;54931;52.098;21.006;2023-04-01T07:20:05;27.20;;;16.10;;
68126;SDS011;54931;52.098;21.006;2023-04-01T07:22:47;29.70;;;16.40;;
68126;SDS011;54931;52.098;21.006;2023-04-01T07:25:24;26.80;;;15.60;;
68126;SDS011;54931;52.098;21.006;2023-04-01T07:28:01;30.50;;;16.50;;
68126;SDS011;54931;52.098;21.006;2023-04-01T07:31:10;32.40;;;17.20;;
68126;SDS011;54931;52.098;21.006;2023-04-01T07:36:32;28.00;;;15.70;;
68126;SDS011;54931;52.098;21.006;2023-04-01T07:41:49;23.20;;;13.20;;
68126;SDS011;54931;52.098;21.006;2023-04-01T07:47:53;25.70;;;14.20;;
68126;SDS011;54931;52.098;21.006;2023-04-01T07:56:45;26.70;;;14.60;;
68126;SDS011;54931;52.098;21.006;2023-04-01T07:59:31;25.30;;;14.50;;
68126;SDS011;54931;52.098;21.006;2023-04-01T08:05:24;24.00;;;14.40;;
68126;SDS011;54931;52.098;21.006;2023-04-01T08:08:06;24.30;;;14.50;;
68126;SDS011;54931;52.098;21.006;2023-04-01T08:16:29;29.20;;;15.30;;
68126;SDS011;54931;52.098;21.006;2023-04-01T08:22:51;25.30;;;14.40;;
68126;SDS011;54931;52.098;21.006;2023-04-01T08:25:33;27.90;;;14.50;;
68126;SDS011;54931;52.098;21.006;2023-04-01T08:28:27;28.10;;;15.40;;
68126;SDS011;54931;52.098;21.006;2023-04-01T08:34:25;27.70;;;15.10;;
68126;SDS011;54931;52.098;21.006;2023-04-01T08:37:07;27.20;;;14.90;;
68126;SDS011;54931;52.098;21.006;2023-04-01T08:39:47;24.50;;;14.10;;
68126;SDS011;54931;52.098;21.006;2023-04-01T08:52:18;23.30;;;13.40;;
68126;SDS011;54931;52.098;21.006;2023-04-01T08:55:22;25.40;;;13.60;;
68126;SDS011;54931;52.098;21.006;2023-04-01T09:00:55;27.00;;;14.40;;
68126;SDS011;54931;52.098;21.006;2023-04-01T09:03:48;30.00;;;15.10;;
68126;SDS011;54931;52.098;21.006;2023-04-01T09:06:33;24.60;;;14.90;;
68126;SDS011;54931;52.098;21.006;2023-04-01T09:09:22;25.00;;;13.80;;
68126;SDS011;54931;52.098;21.006;2023-04-01T09:21:50;24.00;;;13.60;;
68126;SDS011;54931;52.098;21.006;2023-04-01T09:24:42;19.20;;;11.30;;
68126;SDS011;54931;52.098;21.006;2023-04-01T09:27:38;21.40;;;12.20;;
68126;SDS011;54931;52.098;21.006;2023-04-01T09:33:22;28.00;;;14.70;;
68126;SDS011;54931;52.098;21.006;2023-04-01T09:36:45;21.30;;;12.10;;
68126;SDS011;54931;52.098;21.006;2023-04-01T09:48:59;20.60;;;11.40;;
68126;SDS011;54931;52.098;21.006;2023-04-01T10:00:43;21.10;;;11.60;;
68126;SDS011;54931;52.098;21.006;2023-04-01T10:28:51;6.50;;;3.50;;
68126;SDS011;54931;52.098;21.006;2023-04-01T10:34:56;5.80;;;3.20;;
68126;SDS011;54931;52.098;21.006;2023-04-01T11:09:30;7.40;;;4.50;;
68126;SDS011;54931;52.098;21.006;2023-04-01T11:21:07;7.20;;;4.40;;
68126;SDS011;54931;52.098;21.006;2023-04-01T11:34:09;7.10;;;4.00;;
68126;SDS011;54931;52.098;21.006;2023-04-01T11:40:20;6.30;;;4.20;;
68126;SDS011;54931;52.098;21.006;2023-04-01T11:43:09;7.30;;;4.20;;
68126;SDS011;54931;52.098;21.006;2023-04-01T11:46:04;7.50;;;4.80;;
68126;SDS011;54931;52.098;21.006;2023-04-01T11:48:54;8.30;;;4.90;;
68126;SDS011;54931;52.098;21.006;2023-04-01T12:18:02;9.30;;;5.80;;
68126;SDS011;54931;52.098;21.006;2023-04-01T12:21:00;9.40;;;5.70;;
68126;SDS011;54931;52.098;21.006;2023-04-01T12:35:14;9.30;;;5.10;;
68126;SDS011;54931;52.098;21.006;2023-04-01T12:55:42;8.30;;;5.10;;
68126;SDS011;54931;52.098;21.006;2023-04-01T12:58:42;9.20;;;4.80;;
68126;SDS011;54931;52.098;21.006;2023-04-01T13:05:12;7.60;;;4.70;;
68126;SDS011;54931;52.098;21.006;2023-04-01T13:07:59;7.70;;;4.10;;
68126;SDS011;54931;52.098;21.006;2023-04-01T13:16:52;6.90;;;4.10;;
68126;SDS011;54931;52.098;21.006;2023-04-01T13:22:51;8.50;;;5.30;;
68126;SDS011;54931;52.098;21.006;2023-04-01T13:40:23;9.80;;;6.00;;
68126;SDS011;54931;52.098;21.006;2023-04-01T13:43:14;7.90;;;5.20;;
68126;SDS011;54931;52.098;21.006;2023-04-01T13:46:25;8.70;;;5.90;;
68126;SDS011;54931;52.098;21.006;2023-04-01T13:58:49;12.30;;;7.70;;
68126;SDS011;54931;52.098;21.006;2023-04-01T14:01:13;10.20;;;6.70;;
68126;SDS011;54931;52.098;21.006;2023-04-01T14:10:07;6.90;;;4.70;;
68126;SDS011;54931;52.098;21.006;2023-04-01T14:18:59;6.00;;;3.50;;
68126;SDS011;54931;52.098;21.006;2023-04-01T14:27:32;6.30;;;4.30;;
68126;SDS011;54931;52.098;21.006;2023-04-01T14:36:32;6.80;;;4.40;;
68126;SDS011;54931;52.098;21.006;2023-04-01T14:42:09;11.00;;;5.10;;
68126;SDS011;54931;52.098;21.006;2023-04-01T14:51:23;14.00;;;9.40;;
68126;SDS011;54931;52.098;21.006;2023-04-01T14:54:20;24.60;;;13.60;;
68126;SDS011;54931;52.098;21.006;2023-04-01T14:57:13;28.00;;;17.10;;
68126;SDS011;54931;52.098;21.006;2023-04-01T14:59:51;11.30;;;7.30;;
68126;SDS011;54931;52.098;21.006;2023-04-01T15:05:52;8.90;;;5.70;;
68126;SDS011;54931;52.098;21.006;2023-04-01T15:08:38;7.80;;;4.80;;
68126;SDS011;54931;52.098;21.006;2023-04-01T15:11:44;7.90;;;4.60;;
68126;SDS011;54931;52.098;21.006;2023-04-01T15:18:09;8.10;;;4.40;;
68126;SDS011;54931;52.098;21.006;2023-04-01T15:21:03;16.70;;;11.10;;
68126;SDS011;54931;52.098;21.006;2023-04-01T15:32:44;8.20;;;5.50;;
68126;SDS011;54931;52.098;21.006;2023-04-01T15:36:02;5.30;;;3.30;;
68126;SDS011;54931;52.098;21.006;2023-04-01T15:41:49;6.90;;;4.10;;
68126;SDS011;54931;52.098;21.006;2023-04-01T15:53:30;5.30;;;3.40;;
68126;SDS011;54931;52.098;21.006;2023-04-01T16:00:02;19.20;;;11.10;;
68126;SDS011;54931;52.098;21.006;2023-04-01T16:14:41;12.60;;;6.40;;
68126;SDS011;54931;52.098;21.006;2023-04-01T16:20:35;19.80;;;10.50;;
68126;SDS011;54931;52.098;21.006;2023-04-01T16:26:29;23.40;;;13.60;;
68126;SDS011;54931;52.098;21.006;2023-04-01T16:29:27;13.10;;;7.50;;
68126;SDS011;54931;52.098;21.006;2023-04-01T16:32:41;29.10;;;14.40;;
68126;SDS011;54931;52.098;21.006;2023-04-01T16:35:25;22.80;;;12.40;;
68126;SDS011;54931;52.098;21.006;2023-04-01T16:40:53;11.00;;;5.20;;
68126;SDS011;54931;52.098;21.006;2023-04-01T16:43:46;19.50;;;9.60;;
68126;SDS011;54931;52.098;21.006;2023-04-01T16:46:34;9.10;;;4.90;;
68126;SDS011;54931;52.098;21.006;2023-04-01T16:49:39;8.10;;;4.20;;
68126;SDS011;54931;52.098;21.006;2023-04-01T16:55:03;16.70;;;10.20;;
68126;SDS011;54931;52.098;21.006;2023-04-01T17:00:26;9.50;;;5.00;;
68126;SDS011;54931;52.098;21.006;2023-04-01T17:25:30;5.70;;;3.50;;
68126;SDS011;54931;52.098;21.006;2023-04-01T17:32:38;4.80;;;2.70;;
68126;SDS011;54931;52.098;21.006;2023-04-01T17:35:06;10.30;;;6.60;;
68126;SDS011;54931;52.098;21.006;2023-04-01T17:41:03;7.60;;;4.80;;
68126;SDS011;54931;52.098;21.006;2023-04-01T17:50:21;6.20;;;4.30;;
68126;SDS011;54931;52.098;21.006;2023-04-01T17:56:27;17.70;;;9.00;;
68126;SDS011;54931;52.098;21.006;2023-04-01T17:58:52;5.60;;;3.10;;
68126;SDS011;54931;52.098;21.006;2023-04-01T18:01:54;9.00;;;3.80;;
68126;SDS011;54931;52.098;21.006;2023-04-01T18:04:53;7.10;;;4.00;;
68126;SDS011;54931;52.098;21.006;2023-04-01T18:07:43;5.10;;;2.90;;
68126;SDS011;54931;52.098;21.006;2023-04-01T18:10:56;4.70;;;2.90;;
68126;SDS011;54931;52.098;21.006;2023-04-01T18:16:38;6.10;;;3.70;;
68126;SDS011;54931;52.098;21.006;2023-04-01T18:19:22;5.40;;;3.20;;
68126;SDS011;54931;52.098;21.006;2023-04-01T18:22:39;4.60;;;2.90;;
68126;SDS011;54931;52.098;21.006;2023-04-01T18:28:16;8.70;;;4.80;;
68126;SDS011;54931;52.098;21.006;2023-04-01T18:31:14;15.70;;;8.50;;
68126;SDS011;54931;52.098;21.006;2023-04-01T18:34:06;16.50;;;8.60;;
68126;SDS011;54931;52.098;21.006;2023-04-01T18:36:51;14.80;;;8.60;;
68126;SDS011;54931;52.098;21.006;2023-04-01T18:39:36;16.10;;;9.50;;
68126;SDS011;54931;52.098;21.006;2023-04-01T18:42:22;16.80;;;9.70;;
68126;SDS011;54931;52.098;21.006;2023-04-01T18:47:47;18.30;;;10.50;;
68126;SDS011;54931;52.098;21.006;2023-04-01T18:50:58;15.60;;;9.10;;
68126;SDS011;54931;52.098;21.006;2023-04-01T18:54:21;16.80;;;9.50;;
68126;SDS011;54931;52.098;21.006;2023-04-01T18:57:10;19.30;;;10.70;;
68126;SDS011;54931;52.098;21.006;2023-04-01T18:59:46;19.70;;;9.40;;
68126;SDS011;54931;52.098;21.006;2023-04-01T19:02:43;17.40;;;9.90;;
68126;SDS011;54931;52.098;21.006;2023-04-01T19:08:32;16.40;;;9.10;;
68126;SDS011;54931;52.098;21.006;2023-04-01T19:11:07;16.70;;;8.90;;
68126;SDS011;54931;52.098;21.006;2023-04-01T19:19:41;21.80;;;10.10;;
68126;SDS011;54931;52.098;21.006;2023-04-01T19:25:38;20.70;;;10.40;;
68126;SDS011;54931;52.098;21.006;2023-04-01T19:37:45;18.70;;;9.60;;
68126;SDS011;54931;52.098;21.006;2023-04-01T19:41:01;17.40;;;10.40;;
68126;SDS011;54931;52.098;21.006;2023-04-01T19:43:46;18.40;;;9.60;;
68126;SDS011;54931;52.098;21.006;2023-04-01T19:46:21;19.70;;;10.70;;
68126;SDS011;54931;52.098;21.006;2023-04-01T19:52:37;22.90;;;11.60;;
68126;SDS011;54931;52.098;21.006;2023-04-01T19:58:31;20.90;;;10.70;;
68126;SDS011;54931;52.098;21.006;2023-04-01T20:01:00;22.40;;;11.30;;
68126;SDS011;54931;52.098;21.006;2023-04-01T20:03:36;23.20;;;11.90;;
68126;SDS011;54931;52.098;21.006;2023-04-01T20:06:38;24.20;;;11.90;;
68126;SDS011;54931;52.098;21.006;2023-04-01T20:09:58;21.50;;;11.20;;
68126;SDS011;54931;52.098;21.006;2023-04-01T20:15:44;17.20;;;9.30;;
68126;SDS011;54931;52.098;21.006;2023-04-01T20:18:36;18.50;;;9.60;;
68126;SDS011;54931;52.098;21.006;2023-04-01T20:26:33;15.70;;;8.80;;
68126;SDS011;54931;52.098;21.006;2023-04-01T20:32:37;18.60;;;9.70;;
68126;SDS011;54931;52.098;21.006;2023-04-01T20:41:40;18.20;;;9.80;;
68126;SDS011;54931;52.098;21.006;2023-04-01T20:44:13;14.50;;;8.40;;
68126;SDS011;54931;52.098;21.006;2023-04-01T20:47:28;17.90;;;8.80;;
68126;SDS011;54931;52.098;21.006;2023-04-01T20:50:29;16.40;;;8.90;;
68126;SDS011;54931;52.098;21.006;2023-04-01T20:56:13;15.80;;;9.10;;
68126;SDS011;54931;52.098;21.006;2023-04-01T21:00:27;19.70;;;10.30;;
68126;SDS011;54931;52.098;21.006;2023-04-01T21:06:06;18.90;;;10.10;;
68126;SDS011;54931;52.098;21.006;2023-04-01T21:08:57;20.10;;;9.80;;
68126;SDS011;54931;52.098;21.006;2023-04-01T21:12:00;16.00;;;9.00;;
68126;SDS011;54931;52.098;21.006;2023-04-01T21:15:10;18.30;;;9.00;;
68126;SDS011;54931;52.098;21.006;2023-04-01T21:23:17;17.70;;;8.70;;
68126;SDS011;54931;52.098;21.006;2023-04-01T21:46:48;17.80;;;10.00;;
68126;SDS011;54931;52.098;21.006;2023-04-01T22:06:02;16.60;;;9.10;;
68126;SDS011;54931;52.098;21.006;2023-04-01T22:18:22;13.40;;;8.00;;
68126;SDS011;54931;52.098;21.006;2023-04-01T22:21:04;14.50;;;7.80;;
68126;SDS011;54931;52.098;21.006;2023-04-01T22:27:00;15.60;;;8.50;;
68126;SDS011;54931;52.098;21.006;2023-04-01T22:32:47;15.00;;;7.60;;
68126;SDS011;54931;52.098;21.006;2023-04-01T22:41:05;15.10;;;8.30;;
68126;SDS011;54931;52.098;21.006;2023-04-01T22:43:44;16.00;;;8.20;;
68126;SDS011;54931;52.098;21.006;2023-04-01T22:49:19;17.40;;;9.20;;
68126;SDS011;54931;52.098;21.006;2023-04-01T22:52:01;15.20;;;8.30;;
68126;SDS011;54931;52.098;21.006;2023-04-01T22:55:00;14.90;;;8.40;;
68126;SDS011;54931;52.098;21.006;2023-04-01T22:57:43;18.10;;;10.30;;
68126;SDS011;54931;52.098;21.006;2023-04-01T23:00:48;22.80;;;12.00;;
68126;SDS011;54931;52.098;21.006;2023-04-01T23:03:28;21.80;;;12.00;;
68126;SDS011;54931;52.098;21.006;2023-04-01T23:06:00;19.50;;;10.10;;
68126;SDS011;54931;52.098;21.006;2023-04-01T23:09:24;17.20;;;9.00;;
68126;SDS011;54931;52.098;21.006;2023-04-01T23:12:03;16.50;;;8.80;;
68126;SDS011;54931;52.098;21.006;2023-04-01T23:20:26;16.20;;;8.40;;
68126;SDS011;54931;52.098;21.006;2023-04-01T23:28:50;18.00;;;8.90;;
68126;SDS011;54931;52.098;21.006;2023-04-01T23:37:08;14.60;;;7.90;;
68126;SDS011;54931;52.098;21.006;2023-04-01T23:39:45;13.00;;;7.30;;
68126;SDS011;54931;52.098;21.006;2023-04-01T23:42:22;14.50;;;7.60;;
68126;SDS011;54931;52.098;21.006;2023-04-01T23:45:17;17.90;;;9.00;;
68126;SDS011;54931;52.098;21.006;2023-04-01T23:47:48;20.90;;;11.60;;
68126;SDS011;54931;52.098;21.006;2023-04-01T23:50:21;21.40;;;11.50;;
68126;SDS011;54931;52.098;21.006;2023-04-01T23:52:59;22.40;;;10.30;;
68126;SDS011;54931;52.098;21.006;2023-04-01T23:55:33;17.80;;;10.10;;
68126;SDS011;54931;52.098;21.006;2023-04-01T23:58:24;18.10;;;9.60;;
